Time;durP1;ratioP1;P1;durP2;ratioP2;P2;SDS_P1;SDS_P2;PMS_P1;PMS_P2;Temp;Humidity;BMP_temperature;BMP_pressure;BME280_temperature;BME280_humidity;BME280_pressure;Samples;Min_cycle;Max_cycle;Signal;HPM_P1;HPM_P2
2022/01/30 00:00:12;;;;;;;25.73;4.18;;;6.50;99.90;;;;;;5058848;28;20119;-66
2022/01/30 00:02:38;;;;;;;26.75;6.03;;;6.30;99.90;;;;;;5060377;28;20052;-66
2022/01/30 00:05:05;;;;;;;29.73;5.20;;;6.30;99.90;;;;;;5079893;28;20033;-66
2022/01/30 00:07:31;;;;;;;24.08;5.47;;;6.20;99.90;;;;;;5065321;28;20554;-66
2022/01/30 00:09:57;;;;;;;25.02;4.95;;;6.10;99.90;;;;;;5081276;28;20072;-66
2022/01/30 00:12:34;;;;;;;25.08;4.68;;;6.20;99.90;;;;;;5101334;28;20101;-66
2022/01/30 00:14:59;;;;;;;24.00;5.38;;;6.20;99.90;;;;;;5084198;28;20115;-66
2022/01/30 00:17:33;;;;;;;20.73;4.05;;;6.20;99.90;;;;;;5104733;28;20056;-66
2022/01/30 00:20:03;;;;;;;26.90;4.43;;;6.20;99.90;;;;;;5098637;28;20155;-66
2022/01/30 00:25:00;;;;;;;24.67;4.45;;;6.00;99.90;;;;;;5098740;28;20064;-66
2022/01/30 00:27:44;;;;;;;25.73;5.35;;;5.90;99.90;;;;;;5086637;28;20059;-66
2022/01/30 00:30:12;;;;;;;25.90;5.57;;;6.00;99.90;;;;;;5076549;28;20048;-66
2022/01/30 00:32:38;;;;;;;23.77;5.22;;;6.00;99.90;;;;;;5104871;28;20051;-66
2022/01/30 00:35:04;;;;;;;27.88;5.28;;;6.10;99.90;;;;;;5083228;28;20515;-66
2022/01/30 00:37:30;;;;;;;25.80;5.05;;;6.20;99.90;;;;;;5084842;28;20060;-66
2022/01/30 00:39:55;;;;;;;31.85;6.18;;;6.20;99.90;;;;;;5101518;28;20045;-66
2022/01/30 00:42:22;;;;;;;23.17;4.57;;;6.20;99.90;;;;;;5099500;28;20128;-66
2022/01/30 00:44:48;;;;;;;23.85;4.10;;;6.20;99.90;;;;;;5090001;28;20506;-66
2022/01/30 00:47:14;;;;;;;32.58;5.38;;;6.30;99.90;;;;;;5090476;28;20047;-66
2022/01/30 00:49:40;;;;;;;24.92;3.97;;;6.40;99.90;;;;;;5092733;28;20049;-66
2022/01/30 00:52:07;;;;;;;28.63;4.93;;;6.50;99.90;;;;;;5101537;28;20040;-66
2022/01/30 00:54:33;;;;;;;22.98;5.95;;;6.40;99.90;;;;;;5089649;28;20086;-66
2022/01/30 00:56:59;;;;;;;27.02;4.72;;;6.50;99.90;;;;;;5105818;28;20040;-66
2022/01/30 00:59:24;;;;;;;23.75;4.57;;;6.50;99.90;;;;;;5110598;28;20047;-66
2022/01/30 01:01:50;;;;;;;28.23;5.82;;;6.60;99.90;;;;;;5089686;28;20052;-66
2022/01/30 01:04:17;;;;;;;24.27;5.30;;;6.60;99.90;;;;;;5103851;28;20051;-66
2022/01/30 01:06:48;;;;;;;17.90;4.07;;;6.40;99.90;;;;;;5085832;28;20059;-66
2022/01/30 01:09:15;;;;;;;20.30;4.40;;;6.50;99.90;;;;;;5081430;28;20045;-66
2022/01/30 01:25:18;;;;;;;20.55;5.13;;;5.90;99.90;;;;;;5096930;28;20098;-66
2022/01/30 01:27:44;;;;;;;17.00;3.25;;;5.80;99.90;;;;;;5107308;28;20044;-66
2022/01/30 01:30:10;;;;;;;19.40;4.40;;;5.70;99.90;;;;;;5085875;28;20048;-66
2022/01/30 01:32:36;;;;;;;19.63;3.88;;;5.70;99.90;;;;;;5079651;28;20044;-66
2022/01/30 01:35:02;;;;;;;26.65;4.57;;;5.80;99.90;;;;;;5083460;28;20107;-66
2022/01/30 01:37:28;;;;;;;24.83;5.10;;;5.60;99.90;;;;;;5084850;28;20051;-66
2022/01/30 01:39:54;;;;;;;22.42;3.97;;;5.70;99.90;;;;;;5078988;28;20055;-66
2022/01/30 01:42:20;;;;;;;30.73;4.97;;;5.80;99.90;;;;;;5088758;28;20092;-66
2022/01/30 01:44:50;;;;;;;26.30;4.30;;;5.80;99.90;;;;;;5085591;28;20048;-66
2022/01/30 01:47:19;;;;;;;23.88;5.78;;;5.90;99.90;;;;;;5066003;28;20044;-66
2022/01/30 01:49:46;;;;;;;22.50;4.00;;;5.90;99.90;;;;;;5067024;28;20059;-66
2022/01/30 01:52:19;;;;;;;18.65;3.13;;;5.80;99.90;;;;;;5085806;28;20047;-66
2022/01/30 01:54:56;;;;;;;21.88;5.90;;;5.90;99.90;;;;;;5072904;28;20047;-66
2022/01/30 01:57:24;;;;;;;28.90;4.47;;;6.00;99.90;;;;;;5088668;28;20153;-67
2022/01/30 01:59:50;;;;;;;35.90;5.35;;;6.00;99.90;;;;;;5080056;28;20041;-66
2022/01/30 02:02:16;;;;;;;30.25;4.50;;;6.10;99.90;;;;;;5081651;28;20144;-66
2022/01/30 02:04:43;;;;;;;29.40;5.25;;;6.10;99.90;;;;;;5106816;28;20063;-66
2022/01/30 02:09:54;;;;;;;26.55;5.13;;;6.10;99.90;;;;;;5094831;28;20059;-66
2022/01/30 02:12:27;;;;;;;23.35;4.68;;;6.00;99.90;;;;;;5085872;28;20051;-66
2022/01/30 02:25:48;;;;;;;30.60;5.15;;;5.60;99.90;;;;;;5098783;28;20055;-66
2022/01/30 02:28:17;;;;;;;38.58;5.85;;;5.60;99.90;;;;;;5077628;28;20090;-66
2022/01/30 02:30:51;;;;;;;30.50;4.45;;;5.60;99.90;;;;;;5083400;28;20043;-66
2022/01/30 02:33:21;;;;;;;32.38;5.25;;;5.60;99.90;;;;;;5120081;28;20395;-66
2022/01/30 02:35:47;;;;;;;29.55;5.47;;;5.80;99.90;;;;;;5082996;28;20055;-66
2022/01/30 02:38:15;;;;;;;30.00;5.35;;;5.80;99.90;;;;;;5075220;28;20056;-66
2022/01/30 02:40:43;;;;;;;26.05;6.05;;;5.90;99.90;;;;;;5075611;28;20037;-66
2022/01/30 02:43:09;;;;;;;29.73;6.05;;;5.90;99.90;;;;;;5085742;28;20055;-66
2022/01/30 02:45:39;;;;;;;26.60;4.60;;;6.00;99.90;;;;;;5102950;28;20040;-66
2022/01/30 02:53:05;;;;;;;27.05;6.32;;;6.20;99.90;;;;;;5079684;28;20048;-66
2022/01/30 02:55:31;;;;;;;24.05;5.05;;;6.00;99.90;;;;;;5085957;28;20040;-66
2022/01/30 02:57:57;;;;;;;24.00;4.25;;;6.00;99.90;;;;;;5081034;28;20078;-66
2022/01/30 03:00:23;;;;;;;34.03;5.55;;;6.00;99.90;;;;;;5081842;28;20048;-66
2022/01/30 03:02:48;;;;;;;25.60;5.05;;;6.00;99.90;;;;;;5087967;28;20063;-66
2022/01/30 03:05:14;;;;;;;27.90;4.57;;;6.00;99.90;;;;;;5082337;28;20052;-66
2022/01/30 03:07:40;;;;;;;29.70;5.00;;;5.90;99.90;;;;;;5084422;28;20132;-66
2022/01/30 03:10:06;;;;;;;33.95;5.90;;;6.00;99.90;;;;;;5079497;28;20079;-66
2022/01/30 03:12:32;;;;;;;35.30;5.75;;;6.10;99.90;;;;;;5063091;28;20107;-66
2022/01/30 03:14:58;;;;;;;38.70;6.70;;;6.10;99.90;;;;;;5063274;28;20040;-66
2022/01/30 03:17:23;;;;;;;29.40;6.18;;;6.20;99.90;;;;;;5069032;28;20053;-66
2022/01/30 03:19:49;;;;;;;35.33;5.55;;;6.10;99.90;;;;;;5055186;28;20062;-66
2022/01/30 03:22:15;;;;;;;32.53;5.63;;;6.10;99.90;;;;;;5059035;28;20053;-66
2022/01/30 03:24:41;;;;;;;26.33;5.07;;;6.00;99.90;;;;;;5076814;28;20052;-66
2022/01/30 03:27:09;;;;;;;44.13;6.50;;;6.10;99.90;;;;;;5049221;28;20234;-66
2022/01/30 03:29:37;;;;;;;37.65;7.18;;;6.10;99.90;;;;;;5079523;28;20120;-66
2022/01/30 03:32:04;;;;;;;33.50;6.28;;;6.00;99.90;;;;;;5083269;28;20462;-66
2022/01/30 03:34:29;;;;;;;28.85;6.80;;;6.00;99.90;;;;;;5053058;28;20057;-66
2022/01/30 03:36:55;;;;;;;27.60;5.63;;;5.90;99.90;;;;;;5063545;28;20048;-66
2022/01/30 03:39:21;;;;;;;31.13;7.05;;;5.90;99.90;;;;;;5062310;28;20049;-66
2022/01/30 03:41:47;;;;;;;35.40;6.05;;;5.90;99.90;;;;;;5064352;28;20083;-66
2022/01/30 03:44:13;;;;;;;36.53;5.57;;;5.90;99.90;;;;;;5066026;28;20044;-66
2022/01/30 03:46:39;;;;;;;37.97;6.47;;;5.90;99.90;;;;;;5063150;28;20060;-66
2022/01/30 03:49:04;;;;;;;36.35;7.38;;;6.00;99.90;;;;;;5075665;28;20044;-66
2022/01/30 03:51:30;;;;;;;27.88;5.68;;;6.00;99.90;;;;;;5066470;28;20048;-66
2022/01/30 03:53:56;;;;;;;42.05;7.97;;;6.10;99.90;;;;;;5064208;28;20080;-66
2022/01/30 03:56:21;;;;;;;36.72;6.60;;;6.10;99.90;;;;;;5076882;28;20083;-66
2022/01/30 03:58:47;;;;;;;33.35;6.00;;;6.10;99.90;;;;;;5084223;28;20037;-66
2022/01/30 04:01:13;;;;;;;30.27;5.40;;;6.10;99.90;;;;;;5084628;28;20040;-66
2022/01/30 04:03:39;;;;;;;28.27;5.75;;;6.10;99.90;;;;;;5064589;28;20056;-66
2022/01/30 04:06:05;;;;;;;27.88;5.35;;;6.10;99.90;;;;;;5063415;28;20083;-66
2022/01/30 04:08:32;;;;;;;36.55;6.60;;;6.10;99.90;;;;;;5062061;28;20526;-66
2022/01/30 04:10:58;;;;;;;34.45;6.95;;;6.10;99.90;;;;;;5070661;28;20110;-66
2022/01/30 04:13:24;;;;;;;35.25;6.60;;;6.20;99.90;;;;;;5070530;28;20066;-66
2022/01/30 04:15:50;;;;;;;43.95;7.35;;;6.20;99.90;;;;;;5066609;28;20048;-66
2022/01/30 04:18:16;;;;;;;31.40;5.72;;;6.40;99.90;;;;;;5068314;28;20057;-66
2022/01/30 04:20:42;;;;;;;39.47;6.95;;;6.30;99.90;;;;;;5067509;28;20047;-66
2022/01/30 04:23:08;;;;;;;41.80;6.45;;;6.40;99.90;;;;;;5067068;28;20056;-66
2022/01/30 04:25:33;;;;;;;35.83;6.25;;;6.40;99.90;;;;;;5088423;28;20051;-66
2022/01/30 04:27:59;;;;;;;27.58;6.10;;;6.30;99.90;;;;;;5067388;28;20053;-66
2022/01/30 04:30:25;;;;;;;36.50;5.75;;;6.70;99.90;;;;;;5069334;28;20072;-66
2022/01/30 04:32:51;;;;;;;40.03;8.27;;;6.60;99.90;;;;;;5066862;28;20048;-66
2022/01/30 04:35:29;;;;;;;33.00;7.30;;;6.10;99.90;;;;;;5068070;28;20069;-66
2022/01/30 04:38:17;;;;;;;41.25;6.60;;;5.90;99.90;;;;;;5066859;28;20053;-66
2022/01/30 05:00:05;;;;;;;43.35;6.50;;;5.60;99.90;;;;;;5025970;28;20049;-66
2022/01/30 05:05:36;;;;;;;47.05;9.45;;;5.60;99.90;;;;;;5006267;28;20065;-66
2022/01/30 05:07:57;;;;;;;36.35;6.38;;;5.60;99.90;;;;;;5025556;28;20046;-66
2022/01/30 05:10:23;;;;;;;38.78;7.55;;;5.60;99.90;;;;;;5008809;28;20066;-66
2022/01/30 05:12:55;;;;;;;40.80;7.50;;;5.60;99.90;;;;;;5022231;28;20110;-66
2022/01/30 05:15:21;;;;;;;29.30;8.25;;;5.70;99.90;;;;;;5021918;28;20065;-66
2022/01/30 05:17:48;;;;;;;39.60;6.93;;;5.70;99.90;;;;;;5028226;28;20049;-66
2022/01/30 05:20:15;;;;;;;43.33;8.10;;;5.80;99.90;;;;;;5026098;28;20374;-66
2022/01/30 05:22:40;;;;;;;44.03;7.15;;;5.80;99.90;;;;;;5028253;28;20683;-66
2022/01/30 05:25:07;;;;;;;43.50;8.60;;;5.80;99.90;;;;;;5044921;28;20046;-66
2022/01/30 05:27:33;;;;;;;38.33;7.28;;;5.80;99.90;;;;;;5045364;28;20045;-66
2022/01/30 05:29:59;;;;;;;43.70;8.85;;;5.80;99.90;;;;;;5028790;28;20480;-66
2022/01/30 05:32:25;;;;;;;42.30;7.85;;;5.70;99.90;;;;;;5028348;28;20041;-66
2022/01/30 05:34:52;;;;;;;50.70;8.25;;;5.60;99.90;;;;;;5046497;28;20060;-66
2022/01/30 05:40:59;;;;;;;48.63;8.00;;;5.70;99.90;;;;;;5100636;28;20031;-66
2022/01/30 05:43:28;;;;;;;43.45;7.55;;;5.70;99.90;;;;;;5088401;28;20076;-66
2022/01/30 05:46:06;;;;;;;46.35;8.57;;;5.60;99.90;;;;;;5089149;28;20040;-66
2022/01/30 05:48:32;;;;;;;42.40;8.20;;;5.60;99.90;;;;;;5089337;28;20089;-66
2022/01/30 05:50:58;;;;;;;54.15;8.73;;;5.50;99.90;;;;;;5072593;28;20036;-66
2022/01/30 05:53:23;;;;;;;45.90;8.45;;;5.50;99.90;;;;;;5089124;28;20073;-66
2022/01/30 05:55:50;;;;;;;36.85;6.60;;;5.50;99.90;;;;;;5107238;28;20122;-66
2022/01/30 05:58:16;;;;;;;35.97;7.75;;;5.50;99.90;;;;;;5088922;28;20052;-66
2022/01/30 06:00:42;;;;;;;43.10;6.93;;;5.50;99.90;;;;;;5089098;28;20050;-66
2022/01/30 06:03:07;;;;;;;47.83;8.20;;;5.50;99.90;;;;;;5106963;28;20499;-66
2022/01/30 06:05:33;;;;;;;48.58;8.65;;;5.60;99.90;;;;;;5088752;28;20143;-66
2022/01/30 06:08:09;;;;;;;47.83;8.18;;;5.70;99.90;;;;;;5106971;28;20135;-66
2022/01/30 06:10:34;;;;;;;43.55;6.28;;;5.70;99.90;;;;;;5103302;28;20376;-67
2022/01/30 06:13:00;;;;;;;50.10;8.38;;;5.70;99.90;;;;;;5068306;28;20131;-66
2022/01/30 06:15:26;;;;;;;43.92;7.60;;;5.70;99.90;;;;;;5085308;28;20059;-66
2022/01/30 06:17:52;;;;;;;46.08;9.60;;;5.70;99.90;;;;;;5068613;28;20059;-66
2022/01/30 06:20:17;;;;;;;46.15;7.95;;;5.70;99.90;;;;;;5068340;28;20106;-66
2022/01/30 06:22:43;;;;;;;43.80;7.43;;;5.90;99.90;;;;;;5068334;28;20136;-66
2022/01/30 06:25:10;;;;;;;40.38;8.10;;;6.10;99.90;;;;;;5085123;28;20040;-66
2022/01/30 06:27:36;;;;;;;38.33;6.32;;;6.30;99.90;;;;;;5068263;28;20074;-66
2022/01/30 06:30:04;;;;;;;42.78;6.60;;;6.20;99.90;;;;;;5068204;28;20106;-66
2022/01/30 06:32:29;;;;;;;45.25;6.93;;;6.00;99.90;;;;;;5067772;28;20048;-66
2022/01/30 06:34:55;;;;;;;54.85;8.80;;;6.00;99.90;;;;;;5067863;28;20054;-66
2022/01/30 06:37:21;;;;;;;46.47;7.68;;;5.80;99.90;;;;;;5086236;28;20055;-66
2022/01/30 06:39:47;;;;;;;42.90;7.10;;;5.90;99.90;;;;;;5068113;28;20052;-66
2022/01/30 06:42:12;;;;;;;56.00;8.70;;;5.80;99.90;;;;;;5041690;28;20041;-66
2022/01/30 06:44:38;;;;;;;48.53;8.95;;;5.70;99.90;;;;;;5047640;28;20049;-66
2022/01/30 06:47:05;;;;;;;44.25;7.57;;;5.70;99.90;;;;;;5047932;28;20083;-66
2022/01/30 06:49:31;;;;;;;40.05;7.32;;;5.70;99.90;;;;;;5048275;28;20057;-66
2022/01/30 06:51:56;;;;;;;50.97;9.00;;;5.80;99.90;;;;;;5047868;28;20079;-66
2022/01/30 06:54:22;;;;;;;40.60;7.82;;;5.90;99.90;;;;;;5065481;28;20049;-66
2022/01/30 06:56:48;;;;;;;49.63;7.63;;;5.80;99.90;;;;;;5064651;28;20128;-66
2022/01/30 06:59:13;;;;;;;46.75;7.63;;;5.70;99.90;;;;;;5047789;28;20055;-66
2022/01/30 07:01:39;;;;;;;53.22;7.82;;;5.70;99.90;;;;;;5031231;28;20064;-66
2022/01/30 07:04:05;;;;;;;54.55;9.38;;;5.70;99.90;;;;;;5047440;28;20049;-66
2022/01/30 07:06:30;;;;;;;43.17;8.40;;;5.70;99.90;;;;;;5047959;28;20087;-66
2022/01/30 07:08:56;;;;;;;46.28;10.30;;;5.70;99.90;;;;;;5031130;28;20071;-66
2022/01/30 07:11:22;;;;;;;28.42;5.60;;;5.90;99.90;;;;;;5065393;28;20116;-66
2022/01/30 07:13:47;;;;;;;49.75;8.40;;;6.00;99.90;;;;;;5047167;28;20083;-66
2022/01/30 07:16:15;;;;;;;42.10;7.43;;;6.10;99.90;;;;;;5061949;28;20048;-66
2022/01/30 07:18:41;;;;;;;39.65;6.32;;;5.90;99.90;;;;;;5063598;28;20044;-66
2022/01/30 07:21:09;;;;;;;38.92;6.90;;;6.10;99.90;;;;;;5057727;28;20056;-66
2022/01/30 07:23:36;;;;;;;34.35;5.93;;;6.10;99.90;;;;;;5061175;28;20049;-66
2022/01/30 07:26:02;;;;;;;40.58;7.10;;;6.30;99.90;;;;;;5059294;28;20099;-66
2022/01/30 07:28:28;;;;;;;42.17;7.25;;;6.30;99.90;;;;;;5044627;28;20052;-66
2022/01/30 07:30:54;;;;;;;50.40;7.13;;;6.20;99.90;;;;;;5066822;28;20068;-66
2022/01/30 07:33:20;;;;;;;41.40;6.43;;;6.20;99.90;;;;;;5045407;28;20080;-66
2022/01/30 07:35:46;;;;;;;44.17;8.10;;;6.10;99.90;;;;;;5066592;28;20045;-66
2022/01/30 07:38:13;;;;;;;41.90;8.45;;;6.10;99.90;;;;;;5073359;28;20066;-66
2022/01/30 07:40:39;;;;;;;44.75;8.95;;;6.00;99.90;;;;;;5063312;28;20048;-66
2022/01/30 07:43:05;;;;;;;40.90;6.50;;;6.00;99.90;;;;;;5064853;28;20124;-66
2022/01/30 07:45:30;;;;;;;46.53;7.15;;;6.00;99.90;;;;;;5063252;28;20049;-66
2022/01/30 07:47:56;;;;;;;46.53;7.43;;;6.10;99.90;;;;;;5077352;28;20056;-66
2022/01/30 07:50:22;;;;;;;45.75;8.40;;;6.20;99.90;;;;;;5062783;28;20049;-66
2022/01/30 07:52:47;;;;;;;41.15;6.97;;;6.30;99.90;;;;;;5050000;28;20048;-66
2022/01/30 07:55:13;;;;;;;17.05;4.15;;;6.40;99.90;;;;;;5068593;28;20053;-66
2022/01/30 07:57:39;;;;;;;49.35;8.40;;;6.50;99.90;;;;;;5066367;28;20056;-66
2022/01/30 08:00:06;;;;;;;46.63;6.82;;;6.40;99.90;;;;;;5049876;28;20112;-66
2022/01/30 08:02:32;;;;;;;28.63;6.03;;;6.40;99.90;;;;;;5063872;28;20048;-66
2022/01/30 08:04:57;;;;;;;45.03;9.55;;;6.50;99.90;;;;;;5065793;28;20056;-66
2022/01/30 08:07:23;;;;;;;33.47;6.50;;;6.40;99.90;;;;;;5063676;28;20063;-66
2022/01/30 08:09:49;;;;;;;41.13;7.93;;;6.40;99.90;;;;;;5063654;28;20052;-66
2022/01/30 08:12:15;;;;;;;37.72;6.45;;;6.40;99.90;;;;;;5080951;28;20076;-64
2022/01/30 08:14:40;;;;;;;37.28;6.35;;;6.50;99.90;;;;;;5080745;28;20052;-64
2022/01/30 08:17:06;;;;;;;30.20;5.25;;;6.50;99.90;;;;;;5083600;28;20036;-64
2022/01/30 08:19:32;;;;;;;37.58;4.88;;;6.30;99.90;;;;;;5081552;28;20048;-64
2022/01/30 08:22:00;;;;;;;31.42;5.90;;;6.40;99.90;;;;;;5078908;28;20048;-64
2022/01/30 08:24:26;;;;;;;32.05;5.93;;;6.40;99.90;;;;;;5066279;28;20508;-64
2022/01/30 08:26:52;;;;;;;20.50;6.03;;;6.20;99.90;;;;;;5066114;28;20047;-64
2022/01/30 08:29:17;;;;;;;41.90;6.65;;;6.50;99.90;;;;;;5079542;28;20581;-64
2022/01/30 08:31:43;;;;;;;37.97;6.65;;;6.40;99.90;;;;;;5065887;28;20076;-64
2022/01/30 08:34:09;;;;;;;36.80;7.32;;;6.40;99.90;;;;;;5075795;28;20056;-64
2022/01/30 08:36:35;;;;;;;37.45;6.20;;;6.30;99.90;;;;;;5054620;28;20044;-64
2022/01/30 08:39:00;;;;;;;37.47;6.43;;;6.20;99.90;;;;;;5063390;28;20057;-64
2022/01/30 08:41:26;;;;;;;34.70;6.68;;;6.10;99.90;;;;;;5059626;28;20120;-64
2022/01/30 08:43:52;;;;;;;31.75;6.32;;;6.10;99.90;;;;;;5061310;28;20052;-64
2022/01/30 08:46:20;;;;;;;38.88;7.25;;;6.20;99.90;;;;;;5076143;28;20161;-64
2022/01/30 08:48:46;;;;;;;30.00;7.05;;;6.20;99.90;;;;;;5061053;28;20059;-65
2022/01/30 08:51:12;;;;;;;34.90;6.50;;;6.30;99.90;;;;;;5065809;28;20041;-65
2022/01/30 08:53:37;;;;;;;39.63;5.78;;;6.50;99.90;;;;;;5063326;28;20106;-65
2022/01/30 08:56:03;;;;;;;25.50;5.38;;;6.30;99.90;;;;;;5082790;28;20072;-65
2022/01/30 08:58:30;;;;;;;44.50;7.38;;;6.30;99.90;;;;;;5077705;28;20052;-65
2022/01/30 09:00:56;;;;;;;44.28;9.02;;;6.30;99.90;;;;;;5078463;28;20045;-65
2022/01/30 09:03:21;;;;;;;38.65;7.13;;;6.20;99.90;;;;;;5064816;28;20060;-65
2022/01/30 09:05:47;;;;;;;37.85;7.38;;;6.20;99.90;;;;;;5066103;28;20051;-65
2022/01/30 09:08:13;;;;;;;38.40;7.97;;;6.20;99.90;;;;;;5064370;28;20075;-65
2022/01/30 09:10:41;;;;;;;46.33;7.53;;;6.20;99.90;;;;;;5069611;28;20104;-65
2022/01/30 09:13:07;;;;;;;41.30;6.43;;;6.30;99.90;;;;;;5079497;28;20092;-65
2022/01/30 09:15:38;;;;;;;38.60;6.80;;;6.40;99.90;;;;;;5051783;28;20040;-65
2022/01/30 09:18:08;;;;;;;45.03;7.85;;;6.60;99.90;;;;;;5065985;28;20075;-65
2022/01/30 09:20:39;;;;;;;36.08;6.28;;;6.70;99.90;;;;;;5087209;28;20044;-65
2022/01/30 09:23:06;;;;;;;48.42;8.48;;;6.60;99.90;;;;;;5065496;28;20100;-65
2022/01/30 09:25:32;;;;;;;39.85;7.03;;;6.70;99.90;;;;;;5083447;28;20049;-64
2022/01/30 09:27:57;;;;;;;44.83;7.43;;;6.60;99.90;;;;;;5069235;28;20067;-64
2022/01/30 09:30:24;;;;;;;41.35;7.60;;;6.40;99.90;;;;;;5064696;28;20420;-65
2022/01/30 09:32:49;;;;;;;46.13;7.32;;;6.50;99.90;;;;;;5074355;28;20045;-65
2022/01/30 09:35:15;;;;;;;44.03;6.38;;;6.40;99.90;;;;;;5085888;28;20036;-66
2022/01/30 09:37:41;;;;;;;48.45;8.05;;;6.40;99.90;;;;;;5077711;28;20147;-66
2022/01/30 09:40:07;;;;;;;47.58;8.45;;;6.50;99.90;;;;;;5085639;28;20040;-65
2022/01/30 09:42:33;;;;;;;38.03;7.43;;;6.40;99.90;;;;;;5045749;28;20052;-64
2022/01/30 09:45:03;;;;;;;39.13;7.28;;;6.50;99.90;;;;;;5072658;28;20049;-64
2022/01/30 09:47:30;;;;;;;44.97;7.70;;;6.60;99.90;;;;;;5074259;28;20044;-65
2022/01/30 09:49:58;;;;;;;41.85;6.90;;;6.80;99.90;;;;;;5079407;28;20052;-64
2022/01/30 09:52:24;;;;;;;36.25;7.22;;;6.70;99.90;;;;;;5054945;28;20049;-64
2022/01/30 09:54:50;;;;;;;44.42;8.95;;;6.80;99.90;;;;;;5055081;28;20048;-64
2022/01/30 09:57:17;;;;;;;33.70;6.63;;;6.80;99.90;;;;;;5085313;28;20048;-64
2022/01/30 09:59:43;;;;;;;29.92;6.03;;;6.70;99.90;;;;;;5066981;28;20060;-64
2022/01/30 10:02:09;;;;;;;43.50;7.50;;;6.90;99.90;;;;;;5052209;28;20044;-65
2022/01/30 10:04:36;;;;;;;35.85;7.07;;;6.80;99.90;;;;;;5018842;28;20048;-66
2022/01/30 10:07:09;;;;;;;27.48;6.18;;;6.80;99.90;;;;;;5059439;28;20043;-65
2022/01/30 10:09:37;;;;;;;41.45;8.43;;;7.10;99.90;;;;;;5096705;28;20051;-65
2022/01/30 10:12:13;;;;;;;32.53;7.20;;;7.10;99.90;;;;;;5084023;28;20099;-65
2022/01/30 10:14:53;;;;;;;41.88;7.38;;;7.00;99.90;;;;;;5065176;28;20502;-65
2022/01/30 10:17:42;;;;;;;24.33;4.70;;;7.10;99.90;;;;;;5061858;28;20044;-66
2022/01/30 10:20:08;;;;;;;33.60;5.75;;;7.30;99.90;;;;;;5077908;28;20045;-65
2022/01/30 10:22:36;;;;;;;35.38;6.45;;;7.40;99.90;;;;;;5084773;28;20040;-66
2022/01/30 10:25:03;;;;;;;37.00;6.13;;;7.40;99.90;;;;;;5065970;28;20516;-66
2022/01/30 10:27:29;;;;;;;38.58;6.25;;;7.30;99.90;;;;;;5082157;28;20049;-66
2022/01/30 10:30:05;;;;;;;32.17;6.38;;;7.30;99.90;;;;;;5032740;28;20207;-65
2022/01/30 10:32:31;;;;;;;37.60;6.25;;;7.30;99.90;;;;;;5065532;28;20052;-65
2022/01/30 10:35:00;;;;;;;42.25;6.28;;;7.30;99.90;;;;;;5094553;28;20051;-65
2022/01/30 10:37:27;;;;;;;41.60;7.55;;;7.30;99.90;;;;;;5071078;28;20049;-65
2022/01/30 10:40:11;;;;;;;33.35;5.63;;;7.40;99.90;;;;;;5084274;28;20048;-65
2022/01/30 10:42:47;;;;;;;38.65;5.57;;;7.30;99.90;;;;;;5064807;28;20040;-65
2022/01/30 10:45:26;;;;;;;29.83;5.95;;;7.30;99.90;;;;;;5084253;28;20056;-65
2022/01/30 10:48:11;;;;;;;29.27;6.40;;;7.50;99.90;;;;;;5062332;28;20040;-65
2022/01/30 10:50:45;;;;;;;32.28;5.47;;;7.50;99.90;;;;;;5064669;28;20071;-65
2022/01/30 10:53:23;;;;;;;36.50;6.78;;;7.70;99.90;;;;;;5064956;28;20044;-65
2022/01/30 10:55:50;;;;;;;27.75;6.38;;;7.70;99.90;;;;;;5043626;28;20152;-65
2022/01/30 10:58:18;;;;;;;31.75;6.40;;;7.80;99.90;;;;;;5057936;28;20048;-65
2022/01/30 11:00:50;;;;;;;40.95;7.65;;;7.70;99.90;;;;;;5081738;28;20127;-65
2022/01/30 11:03:45;;;;;;;28.67;6.45;;;7.60;99.90;;;;;;5064424;28;20048;-65
2022/01/30 11:06:13;;;;;;;33.40;6.22;;;7.80;99.90;;;;;;5045469;28;20052;-64
2022/01/30 11:08:43;;;;;;;41.55;6.68;;;7.80;99.90;;;;;;5082162;28;20399;-65
2022/01/30 11:14:16;;;;;;;37.08;7.00;;;7.60;99.90;;;;;;5039013;28;20314;-64
2022/01/30 11:17:02;;;;;;;35.50;6.68;;;7.20;99.90;;;;;;5058513;28;20051;-65
2022/01/30 11:19:33;;;;;;;42.60;5.70;;;7.30;99.90;;;;;;5054142;28;20385;-64
2022/01/30 11:22:12;;;;;;;45.88;6.78;;;7.40;99.90;;;;;;5034783;28;20051;-65
2022/01/30 11:24:45;;;;;;;30.52;4.68;;;7.50;99.90;;;;;;5041836;28;20048;-65
2022/01/30 11:27:12;;;;;;;38.67;7.47;;;7.60;99.90;;;;;;5040478;28;20059;-65
2022/01/30 11:29:38;;;;;;;34.70;6.18;;;7.30;99.90;;;;;;5021428;28;20926;-64
2022/01/30 11:32:08;;;;;;;42.17;8.05;;;7.40;99.90;;;;;;5050676;28;20135;-64
2022/01/30 11:34:39;;;;;;;33.10;4.85;;;7.60;99.90;;;;;;5059106;28;20040;-63
2022/01/30 11:37:07;;;;;;;34.92;6.30;;;7.70;99.90;;;;;;5065713;28;20235;-64
2022/01/30 11:39:34;;;;;;;35.28;7.03;;;7.60;99.90;;;;;;5058210;28;20052;-64
2022/01/30 11:42:15;;;;;;;39.58;7.40;;;7.50;99.90;;;;;;5049195;28;20079;-64
2022/01/30 11:44:49;;;;;;;41.85;7.38;;;7.60;99.90;;;;;;5080040;28;20052;-64
2022/01/30 11:47:19;;;;;;;34.70;6.65;;;7.60;99.90;;;;;;5045479;28;20298;-64
2022/01/30 11:49:53;;;;;;;33.05;6.18;;;7.60;99.90;;;;;;5060646;28;20045;-64
2022/01/30 11:52:20;;;;;;;27.50;4.22;;;7.70;99.90;;;;;;5049681;28;20163;-64
2022/01/30 11:54:49;;;;;;;26.58;4.93;;;7.80;99.90;;;;;;5074859;28;20486;-64
2022/01/30 11:57:18;;;;;;;23.92;4.35;;;8.00;99.90;;;;;;5047807;28;20044;-66
2022/01/30 11:59:45;;;;;;;28.92;5.85;;;7.70;99.90;;;;;;5070924;28;20055;-65
2022/01/30 12:02:23;;;;;;;35.55;7.07;;;7.90;99.90;;;;;;5055596;28;20284;-64
2022/01/30 12:04:57;;;;;;;31.58;6.88;;;8.00;99.90;;;;;;5051123;28;20050;-64
2022/01/30 12:07:48;;;;;;;33.35;6.15;;;8.00;99.90;;;;;;5042583;28;20415;-66
2022/01/30 12:10:26;;;;;;;49.67;8.32;;;8.00;99.90;;;;;;5070970;28;20139;-65
2022/01/30 12:13:01;;;;;;;34.22;5.72;;;8.30;99.90;;;;;;5059520;28;20057;-64
2022/01/30 12:15:44;;;;;;;34.95;5.95;;;8.00;99.90;;;;;;5078525;28;20407;-63
2022/01/30 12:18:15;;;;;;;30.67;5.75;;;8.00;99.90;;;;;;5064917;28;20048;-65
2022/01/30 12:21:04;;;;;;;33.83;5.70;;;7.80;99.90;;;;;;5070385;28;20040;-65
2022/01/30 12:23:32;;;;;;;31.50;6.65;;;7.70;99.90;;;;;;5067872;28;20128;-64
2022/01/30 12:26:05;;;;;;;31.75;6.03;;;7.60;99.90;;;;;;5080941;28;20050;-64
2022/01/30 12:28:50;;;;;;;30.85;5.85;;;7.60;99.90;;;;;;5053004;28;20694;-64
2022/01/30 12:31:30;;;;;;;24.67;4.85;;;7.80;99.90;;;;;;5058501;28;20407;-64
2022/01/30 12:34:03;;;;;;;34.72;6.78;;;8.10;99.90;;;;;;5065291;28;20044;-64
2022/01/30 12:36:31;;;;;;;36.28;6.43;;;7.90;99.90;;;;;;5082544;28;20114;-64
2022/01/30 12:39:04;;;;;;;24.63;4.40;;;7.90;99.90;;;;;;5057432;28;20048;-66
2022/01/30 12:41:31;;;;;;;31.98;5.82;;;8.20;99.90;;;;;;5084314;28;20036;-65
2022/01/30 12:44:00;;;;;;;30.35;5.57;;;8.10;99.90;;;;;;5046748;28;20051;-66
2022/01/30 12:46:29;;;;;;;37.13;6.50;;;7.80;99.90;;;;;;5078275;28;20040;-66
2022/01/30 12:49:05;;;;;;;37.17;6.93;;;7.50;99.90;;;;;;5078967;28;20088;-65
2022/01/30 12:51:31;;;;;;;37.53;7.05;;;7.20;99.90;;;;;;5053239;28;20422;-65
2022/01/30 12:53:57;;;;;;;27.33;5.63;;;7.20;99.90;;;;;;5075135;28;20127;-65
2022/01/30 12:56:25;;;;;;;36.45;6.95;;;7.50;99.90;;;;;;5061939;28;20112;-65
2022/01/30 12:58:55;;;;;;;33.85;5.00;;;7.70;99.90;;;;;;5091764;28;20044;-65
2022/01/30 13:01:26;;;;;;;36.05;6.28;;;7.80;99.90;;;;;;5071946;28;20047;-66
2022/01/30 13:04:04;;;;;;;34.22;7.40;;;7.90;99.90;;;;;;5096762;28;20499;-65
2022/01/30 13:06:36;;;;;;;35.55;7.47;;;7.90;99.90;;;;;;5051713;28;20582;-65
2022/01/30 13:09:03;;;;;;;36.17;6.85;;;8.10;99.90;;;;;;5073827;28;20037;-65
2022/01/30 13:11:29;;;;;;;34.60;5.88;;;7.90;99.90;;;;;;5057918;28;20048;-65
2022/01/30 13:14:00;;;;;;;38.33;7.47;;;7.90;99.90;;;;;;5058950;28;20045;-65
2022/01/30 13:16:31;;;;;;;34.67;5.72;;;7.80;99.90;;;;;;5050885;28;20044;-66
2022/01/30 13:18:57;;;;;;;43.85;7.18;;;7.90;99.90;;;;;;5057001;28;20049;-65
2022/01/30 13:21:29;;;;;;;38.65;6.03;;;8.10;99.90;;;;;;5049197;28;20050;-65
2022/01/30 13:23:55;;;;;;;27.98;5.95;;;8.20;99.90;;;;;;5050982;28;20056;-65
2022/01/30 13:26:33;;;;;;;31.60;5.90;;;7.80;99.90;;;;;;5057009;28;20051;-65
2022/01/30 13:29:00;;;;;;;37.88;6.15;;;7.50;99.90;;;;;;5062562;28;20045;-65
2022/01/30 13:31:26;;;;;;;27.88;5.20;;;7.20;99.90;;;;;;5021225;28;20257;-65
2022/01/30 13:34:12;;;;;;;37.90;6.15;;;7.30;99.90;;;;;;5070089;28;20048;-65
2022/01/30 13:36:40;;;;;;;27.77;5.70;;;7.20;99.90;;;;;;5055669;28;20066;-66
2022/01/30 13:39:11;;;;;;;34.03;6.45;;;7.40;99.90;;;;;;5072150;28;20045;-65
2022/01/30 13:41:46;;;;;;;;;;;7.50;99.90;;;;;;5051700;28;20068;-65
2022/01/30 13:44:23;;;;;;;35.78;6.90;;;7.60;99.90;;;;;;5057826;28;19924;-66
2022/01/30 13:47:02;;;;;;;35.75;6.65;;;7.70;99.90;;;;;;5047479;28;20091;-65
2022/01/30 13:49:29;;;;;;;34.95;6.20;;;7.80;99.90;;;;;;5067927;28;20040;-66
2022/01/30 13:52:09;;;;;;;38.75;6.18;;;7.90;99.90;;;;;;5049013;28;20567;-65
2022/01/30 13:54:39;;;;;;;28.45;5.60;;;7.80;99.90;;;;;;5056442;28;20043;-66
2022/01/30 13:57:07;;;;;;;33.70;6.45;;;7.60;99.90;;;;;;5053345;28;20055;-65